createdAt,value
2023-01-29T00:01:34.232Z,3.13
2023-01-29T00:06:39.594Z,2.78
2023-01-29T00:11:43.057Z,2.70
2023-01-29T00:16:46.441Z,3.30
2023-01-29T00:21:51.219Z,3.45
2023-01-29T00:26:54.572Z,3.42
2023-01-29T00:31:58.019Z,3.10
2023-01-29T00:37:09.129Z,4.40
2023-01-29T00:42:29.881Z,5.50
2023-01-29T00:47:34.236Z,5.43
2023-01-29T00:52:41.053Z,6.10
2023-01-29T00:57:44.395Z,5.00
2023-01-29T01:03:05.048Z,4.73
2023-01-29T01:08:25.039Z,5.82
2023-01-29T01:13:28.514Z,5.18
2023-01-29T01:18:31.985Z,5.43
2023-01-29T01:23:36.756Z,5.25
2023-01-29T01:28:40.111Z,5.82
2023-01-29T01:33:43.751Z,5.18
2023-01-29T01:38:48.603Z,5.63
2023-01-29T01:43:54.107Z,6.10
2023-01-29T01:49:02.900Z,5.85
2023-01-29T01:54:12.734Z,6.57
2023-01-29T01:59:19.758Z,4.80
2023-01-29T02:04:43.888Z,4.78
2023-01-29T02:09:54.175Z,5.15
2023-01-29T02:14:58.900Z,4.13
2023-01-29T02:20:09.676Z,4.50
2023-01-29T02:25:43.995Z,4.63
2023-01-29T02:30:54.440Z,5.00
2023-01-29T02:36:09.475Z,4.47
2023-01-29T02:41:16.579Z,4.97
2023-01-29T02:46:30.971Z,4.32
2023-01-29T02:51:40.084Z,4.40
2023-01-29T02:56:51.423Z,4.70
2023-01-29T03:02:00.297Z,4.07
2023-01-29T03:07:10.295Z,3.50
2023-01-29T03:12:29.142Z,3.57
2023-01-29T03:17:39.112Z,3.67
2023-01-29T03:22:45.601Z,3.50
2023-01-29T03:28:11.032Z,3.83
2023-01-29T03:33:22.225Z,4.60
2023-01-29T03:38:32.295Z,3.63
2023-01-29T03:43:41.505Z,4.18
2023-01-29T03:48:55.333Z,3.90
2023-01-29T03:54:06.306Z,4.30
2023-01-29T03:59:20.894Z,4.40
2023-01-29T04:04:47.972Z,4.22
2023-01-29T04:09:55.909Z,4.90
2023-01-29T04:15:02.712Z,4.30
2023-01-29T04:20:08.726Z,4.38
2023-01-29T04:25:15.993Z,5.03
2023-01-29T04:30:27.469Z,5.32
2023-01-29T04:35:53.339Z,5.50
2023-01-29T04:41:04.237Z,5.45
2023-01-29T04:46:15.181Z,5.90
2023-01-29T04:51:25.469Z,4.90
2023-01-29T04:56:35.228Z,4.63
2023-01-29T05:01:40.207Z,5.45
2023-01-29T05:06:46.797Z,5.55
2023-01-29T05:11:51.355Z,4.90
2023-01-29T05:16:58.386Z,4.30
2023-01-29T05:22:06.691Z,4.07
2023-01-29T05:27:33.997Z,4.33
2023-01-29T05:32:37.855Z,4.55
2023-01-29T05:37:42.671Z,3.53
2023-01-29T05:42:46.088Z,3.85
2023-01-29T05:47:49.547Z,3.40
2023-01-29T05:52:59.164Z,2.92
2023-01-29T05:58:04.767Z,2.50
2023-01-29T06:03:09.563Z,2.40
2023-01-29T06:08:14.551Z,2.97
2023-01-29T06:13:18.003Z,2.30
2023-01-29T06:18:21.405Z,1.90
2023-01-29T06:23:26.314Z,2.43
2023-01-29T06:28:29.771Z,2.45
2023-01-29T06:33:33.320Z,2.60
2023-01-29T06:38:38.188Z,2.70
2023-01-29T06:43:41.517Z,2.80
2023-01-29T06:48:44.883Z,3.03
2023-01-29T06:53:49.541Z,3.07
2023-01-29T06:58:52.826Z,2.60
2023-01-29T07:03:56.092Z,3.27
2023-01-29T07:09:00.853Z,3.10
2023-01-29T07:14:04.141Z,2.70
2023-01-29T07:19:07.441Z,2.80
2023-01-29T07:24:12.191Z,3.10
2023-01-29T07:29:15.484Z,2.30
2023-01-29T07:34:18.835Z,2.63
2023-01-29T07:39:23.620Z,3.15
2023-01-29T07:44:26.909Z,3.55
2023-01-29T07:49:30.162Z,3.17
2023-01-29T07:54:34.859Z,3.70
2023-01-29T07:59:38.313Z,7.85
2023-01-29T08:04:41.778Z,3.40
2023-01-29T08:09:48.177Z,3.55
2023-01-29T08:14:51.675Z,3.40
2023-01-29T08:19:55.049Z,4.07
2023-01-29T08:25:08.506Z,7.68
2023-01-29T08:30:13.361Z,4.43
2023-01-29T08:35:16.889Z,4.18
2023-01-29T08:40:21.739Z,3.90
2023-01-29T08:45:25.108Z,4.13
2023-01-29T08:50:30.915Z,4.67
2023-01-29T08:55:37.443Z,5.70
2023-01-29T09:00:40.981Z,5.25
2023-01-29T09:05:44.308Z,4.80
2023-01-29T09:10:49.043Z,4.80
2023-01-29T09:15:52.334Z,4.80
2023-01-29T09:20:55.946Z,5.00
2023-01-29T09:26:00.637Z,4.95
2023-01-29T09:31:04.792Z,5.43
2023-01-29T09:36:09.137Z,4.78
2023-01-29T09:41:28.717Z,5.72
2023-01-29T09:46:37.781Z,4.88
2023-01-29T09:51:44.532Z,5.82
2023-01-29T09:56:52.024Z,5.70
2023-01-29T10:02:07.267Z,5.70
2023-01-29T10:07:27.792Z,5.20
2023-01-29T10:13:05.959Z,5.60
2023-01-29T10:18:45.085Z,11.50
2023-01-29T10:23:51.495Z,5.25
2023-01-29T10:28:58.977Z,5.07
2023-01-29T10:34:06.476Z,6.17
2023-01-29T10:39:17.483Z,5.55
2023-01-29T10:44:35.525Z,4.47
2023-01-29T10:50:01.910Z,4.00
2023-01-29T10:55:20.547Z,4.82
2023-01-29T11:00:30.546Z,3.95
2023-01-29T11:05:38.035Z,4.70
2023-01-29T11:10:47.298Z,7.97
2023-01-29T11:15:54.039Z,7.28
2023-01-29T11:21:03.002Z,6.13
2023-01-29T11:26:08.176Z,5.22
2023-01-29T11:31:22.858Z,4.60
2023-01-29T11:36:37.215Z,6.18
2023-01-29T11:41:49.949Z,4.65
2023-01-29T11:46:55.091Z,4.70
2023-01-29T11:52:01.942Z,6.47
2023-01-29T11:57:05.563Z,4.50
2023-01-29T12:02:22.352Z,4.90
2023-01-29T12:07:26.179Z,4.45
2023-01-29T12:12:32.721Z,4.70
2023-01-29T12:17:40.796Z,5.70
2023-01-29T12:22:50.126Z,5.47
2023-01-29T12:28:01.369Z,7.05
2023-01-29T12:33:16.998Z,6.57
2023-01-29T12:38:22.726Z,7.70
2023-01-29T12:43:32.280Z,8.43
2023-01-29T12:48:43.213Z,10.35
2023-01-29T12:53:50.817Z,8.70
2023-01-29T12:58:59.379Z,6.10
2023-01-29T13:04:07.985Z,6.88
2023-01-29T13:09:15.983Z,7.30
2023-01-29T13:14:24.299Z,7.55
2023-01-29T13:19:32.855Z,7.23
2023-01-29T13:24:41.065Z,9.20
2023-01-29T13:29:45.506Z,6.95
2023-01-29T13:34:51.219Z,7.20
2023-01-29T13:39:55.635Z,11.02
2023-01-29T13:45:03.520Z,6.38
2023-01-29T13:50:12.196Z,7.20
2023-01-29T13:55:26.362Z,6.90
2023-01-29T14:00:57.612Z,6.40
2023-01-29T14:06:02.639Z,8.35
2023-01-29T14:11:38.992Z,7.53
2023-01-29T14:16:43.201Z,6.30
2023-01-29T14:21:51.438Z,10.80
2023-01-29T14:26:56.733Z,8.13
2023-01-29T14:32:01.909Z,10.67
2023-01-29T14:37:22.612Z,7.93
2023-01-29T14:42:28.751Z,10.93
2023-01-29T14:47:59.631Z,8.40
2023-01-29T14:53:10.911Z,7.47
2023-01-29T14:58:17.585Z,8.45
2023-01-29T15:03:25.950Z,11.63
2023-01-29T15:08:37.615Z,9.73
2023-01-29T15:13:49.499Z,9.03
2023-01-29T15:18:58.423Z,8.17
2023-01-29T15:24:08.058Z,7.68
2023-01-29T15:29:24.881Z,8.73
2023-01-29T15:34:28.655Z,16.00
2023-01-29T15:39:33.582Z,10.23
2023-01-29T15:44:37.028Z,12.77
2023-01-29T15:49:41.548Z,13.30
2023-01-29T15:54:47.277Z,13.88
2023-01-29T15:59:52.498Z,11.60
2023-01-29T16:04:56.967Z,9.05
2023-01-29T16:10:02.063Z,5.35
2023-01-29T16:15:07.373Z,16.42
2023-01-29T16:20:31.596Z,12.33
2023-01-29T16:25:39.919Z,8.17
2023-01-29T16:30:43.263Z,9.38
2023-01-29T16:35:52.305Z,8.85
2023-01-29T16:41:28.702Z,10.77
2023-01-29T16:46:37.026Z,9.17
2023-01-29T16:51:41.044Z,9.20
2023-01-29T16:56:46.651Z,10.65
2023-01-29T17:01:50.607Z,9.90
2023-01-29T17:06:57.551Z,10.88
2023-01-29T17:12:06.468Z,10.18
2023-01-29T17:17:18.090Z,9.40
2023-01-29T17:22:21.404Z,9.70
2023-01-29T17:27:26.114Z,9.85
2023-01-29T17:32:44.355Z,11.10
2023-01-29T17:37:48.767Z,10.05
2023-01-29T17:42:53.523Z,10.10
2023-01-29T17:47:57.639Z,9.68
2023-01-29T17:53:01.765Z,11.30
2023-01-29T17:58:06.543Z,10.65
2023-01-29T18:03:09.911Z,10.17
2023-01-29T18:08:17.844Z,12.07
2023-01-29T18:13:22.521Z,11.32
2023-01-29T18:18:25.920Z,10.17
2023-01-29T18:23:31.324Z,11.95
2023-01-29T18:28:36.177Z,12.38
2023-01-29T18:33:39.532Z,11.27
2023-01-29T18:38:43.247Z,10.70
2023-01-29T18:43:47.892Z,9.95
2023-01-29T18:48:51.330Z,10.03
2023-01-29T18:53:54.829Z,10.68
2023-01-29T18:58:59.511Z,11.85
2023-01-29T19:04:02.821Z,12.93
2023-01-29T19:09:07.375Z,18.65
2023-01-29T19:14:12.506Z,13.23
2023-01-29T19:19:16.879Z,16.55
2023-01-29T19:24:20.390Z,11.75
2023-01-29T19:29:25.127Z,12.40
2023-01-29T19:34:28.566Z,12.30
2023-01-29T19:39:33.879Z,10.05
2023-01-29T19:44:39.061Z,11.52
2023-01-29T19:49:42.408Z,9.85
2023-01-29T19:54:46.768Z,11.23
2023-01-29T19:59:51.478Z,10.52
2023-01-29T20:04:54.972Z,10.30
2023-01-29T20:09:58.271Z,11.55
2023-01-29T20:15:03.063Z,10.52
2023-01-29T20:20:07.239Z,11.82
2023-01-29T20:25:13.857Z,11.30
2023-01-29T20:30:19.808Z,11.60
2023-01-29T20:35:23.342Z,12.68
2023-01-29T20:40:27.355Z,12.13
2023-01-29T20:45:33.151Z,13.57
2023-01-29T20:50:37.041Z,11.80
2023-01-29T20:55:40.856Z,11.98
2023-01-29T21:00:46.486Z,11.98
2023-01-29T21:05:50.373Z,11.80
2023-01-29T21:10:54.316Z,12.50
2023-01-29T21:15:59.186Z,12.15
2023-01-29T21:21:02.664Z,11.18
2023-01-29T21:26:07.545Z,13.73
2023-01-29T21:31:16.334Z,12.05
2023-01-29T21:36:19.750Z,13.95
2023-01-29T21:41:43.876Z,11.17
2023-01-29T21:46:48.558Z,12.65
2023-01-29T21:51:53.448Z,14.93
2023-01-29T21:56:56.751Z,16.23
2023-01-29T22:02:02.040Z,15.00
2023-01-29T22:07:05.713Z,11.95
2023-01-29T22:12:10.395Z,15.67
2023-01-29T22:17:16.565Z,15.07
2023-01-29T22:22:20.475Z,14.97
2023-01-29T22:27:23.859Z,10.40
2023-01-29T22:32:28.789Z,20.17
2023-01-29T22:37:32.219Z,16.83
2023-01-29T22:42:35.667Z,9.63
2023-01-29T22:47:40.414Z,17.93
2023-01-29T22:52:54.013Z,18.40
2023-01-29T22:57:57.754Z,20.75
2023-01-29T23:03:03.669Z,15.40
2023-01-29T23:08:07.654Z,17.10
2023-01-29T23:13:11.094Z,18.27
2023-01-29T23:18:15.863Z,18.70
2023-01-29T23:23:19.182Z,14.50
2023-01-29T23:28:22.497Z,18.50
2023-01-29T23:33:27.191Z,21.67
2023-01-29T23:38:30.756Z,13.15
2023-01-29T23:43:34.780Z,14.97
2023-01-29T23:48:39.613Z,15.17
2023-01-29T23:53:43.129Z,16.33
2023-01-29T23:58:46.501Z,10.85
